Time;durP1;ratioP1;P1;durP2;ratioP2;P2;SDS_P1;SDS_P2;PMS_P1;PMS_P2;Temp;Humidity;BMP_temperature;BMP_pressure;BME280_temperature;BME280_humidity;BME280_pressure;Samples;Min_cycle;Max_cycle;Signal;HPM_P1;HPM_P2
2023/07/30 00:01:11;;;;;;;;;;;;;;;22.06;53.68;95335.56;10446994;28;1967;-73
2023/07/30 00:06:11;;;;;;;;;;;;;;;22.03;54.06;95350.13;10454433;28;1894;-75
2023/07/30 00:11:11;;;;;;;;;;;;;;;22.03;54.30;95350.13;10456068;28;2030;-73
2023/07/30 00:16:12;;;;;;;;;;;;;;;22.02;54.26;95353.06;10447674;28;2117;-73
2023/07/30 00:21:12;;;;;;;;;;;;;;;22.01;54.52;95346.22;10450326;28;2056;-73
2023/07/30 00:26:12;;;;;;;;;;;;;;;22.00;54.75;95344.66;10443574;28;2260;-74
2023/07/30 00:31:12;;;;;;;;;;;;;;;22.00;54.87;95345.44;10443909;28;2303;-75
2023/07/30 00:36:13;;;;;;;;;;;;;;;22.00;54.82;95350.72;10464410;28;4549;-74
2023/07/30 00:41:13;;;;;;;;;;;;;;;21.99;54.58;95358.94;10451430;28;1941;-75
2023/07/30 00:46:13;;;;;;;;;;;;;;;21.97;54.82;95355.81;10454186;28;2180;-74
2023/07/30 00:51:13;;;;;;;;;;;;;;;21.95;54.92;95374.53;10474960;28;2089;-75
2023/07/30 00:56:14;;;;;;;;;;;;;;;21.96;55.28;95375.34;10447927;28;2200;-73
2023/07/30 01:01:14;;;;;;;;;;;;;;;21.95;54.88;95369.28;10446598;28;2189;-73
2023/07/30 01:06:14;;;;;;;;;;;;;;;21.92;55.44;95356.66;10445357;28;2290;-75
2023/07/30 01:11:15;;;;;;;;;;;;;;;21.93;55.39;95347.66;10441737;28;2140;-73
2023/07/30 01:16:15;;;;;;;;;;;;;;;21.91;55.44;95347.19;10429327;28;2034;-74
2023/07/30 01:21:15;;;;;;;;;;;;;;;21.90;55.41;95353.53;10452788;28;2101;-75
2023/07/30 01:26:23;;;;;;;;;;;;;;;21.89;55.48;95357.25;10442906;28;2034;-73
2023/07/30 01:31:24;;;;;;;;;;;;;;;21.88;55.61;95357.53;10471283;28;2338;-73
2023/07/30 01:36:25;;;;;;;;;;;;;;;21.88;55.53;95356.44;10478896;28;2110;-74
2023/07/30 01:41:25;;;;;;;;;;;;;;;21.86;55.48;95360.47;10483429;28;1960;-73
2023/07/30 01:46:25;;;;;;;;;;;;;;;21.84;55.65;95359.97;10475722;28;2216;-74
2023/07/30 01:51:25;;;;;;;;;;;;;;;21.84;55.56;95357.34;10440690;28;2203;-73
2023/07/30 01:56:26;;;;;;;;;;;;;;;21.83;55.64;95355.75;10440445;28;2118;-72
2023/07/30 02:01:26;;;;;;;;;;;;;;;21.81;55.54;95363.16;10443431;28;2007;-72
2023/07/30 02:06:26;;;;;;;;;;;;;;;21.81;55.60;95357.88;10441358;28;1938;-72
2023/07/30 02:11:27;;;;;;;;;;;;;;;21.80;55.42;95356.34;10445163;28;2149;-72
2023/07/30 02:16:28;;;;;;;;;;;;;;;21.79;55.71;95354.75;10450590;28;2147;-72
2023/07/30 02:21:30;;;;;;;;;;;;;;;21.77;55.50;95357.69;10444136;28;2412;-72
2023/07/30 02:26:30;;;;;;;;;;;;;;;21.77;55.88;95362.97;10443219;28;2252;-72
2023/07/30 02:31:30;;;;;;;;;;;;;;;21.78;55.59;95353.19;10442935;28;2090;-72
2023/07/30 02:36:31;;;;;;;;;;;;;;;21.78;55.79;95353.19;10434759;28;4383;-71
2023/07/30 02:41:31;;;;;;;;;;;;;;;21.77;55.80;95349.78;10451308;28;1998;-71
2023/07/30 02:46:31;;;;;;;;;;;;;;;21.77;55.70;95355.06;10437648;28;1929;-71
2023/07/30 02:51:31;;;;;;;;;;;;;;;21.73;56.40;95364.63;10446587;28;1866;-72
2023/07/30 02:56:32;;;;;;;;;;;;;;;21.72;56.70;95370.19;10460713;28;1878;-72
2023/07/30 03:01:32;;;;;;;;;;;;;;;21.74;56.40;95379.34;10448260;28;1998;-73
2023/07/30 03:06:32;;;;;;;;;;;;;;;21.77;56.78;95396.47;10443924;28;1966;-74
2023/07/30 03:11:32;;;;;;;;;;;;;;;21.80;56.60;95398.53;10445685;28;1902;-74
2023/07/30 03:16:33;;;;;;;;;;;;;;;21.82;56.52;95396.44;10443941;28;1860;-75
2023/07/30 03:21:33;;;;;;;;;;;;;;;21.83;56.64;95400.63;10449120;28;2211;-74
2023/07/30 03:26:33;;;;;;;;;;;;;;;21.84;56.45;95389.78;10475684;28;2049;-74
2023/07/30 03:31:33;;;;;;;;;;;;;;;21.83;56.34;95392.69;10444651;28;1913;-74
2023/07/30 03:36:34;;;;;;;;;;;;;;;21.82;56.58;95391.16;10453836;28;4592;-75
2023/07/30 03:41:35;;;;;;;;;;;;;;;21.81;56.69;95400.09;10438170;28;1910;-75
2023/07/30 03:46:35;;;;;;;;;;;;;;;21.79;56.94;95389.84;10444846;28;2097;-74
2023/07/30 03:51:36;;;;;;;;;;;;;;;21.76;57.33;95398.31;10441889;28;1865;-74
2023/07/30 03:56:36;;;;;;;;;;;;;;;21.74;57.20;95399.69;10448117;28;2093;-74
2023/07/30 04:01:36;;;;;;;;;;;;;;;21.70;57.32;95399.47;10441451;28;2073;-75
2023/07/30 04:06:36;;;;;;;;;;;;;;;21.70;57.50;95409.25;10450315;28;1987;-74
2023/07/30 04:11:37;;;;;;;;;;;;;;;21.66;57.56;95402.97;10457337;28;2388;-74
2023/07/30 04:16:37;;;;;;;;;;;;;;;21.66;57.66;95402.97;10450542;28;1850;-74
2023/07/30 04:21:37;;;;;;;;;;;;;;;21.67;57.83;95399.28;10447491;28;1910;-74
2023/07/30 04:26:37;;;;;;;;;;;;;;;21.66;57.51;95402.97;10457625;28;1746;-74
2023/07/30 04:31:38;;;;;;;;;;;;;;;21.66;57.56;95405.59;10460931;28;1834;-74
2023/07/30 04:36:38;;;;;;;;;;;;;;;21.66;57.64;95409.03;10457012;28;4550;-74
2023/07/30 04:41:38;;;;;;;;;;;;;;;21.65;57.95;95425.94;10451179;28;2164;-72
2023/07/30 04:46:39;;;;;;;;;;;;;;;21.66;58.04;95424.06;10453000;28;1869;-74
2023/07/30 04:51:39;;;;;;;;;;;;;;;21.65;57.85;95427.81;10455672;28;1905;-73
2023/07/30 04:56:39;;;;;;;;;;;;;;;21.65;57.85;95433.06;10455402;28;1876;-74
2023/07/30 05:01:39;;;;;;;;;;;;;;;21.66;57.95;95450.44;10455238;28;1968;-74
2023/07/30 05:06:40;;;;;;;;;;;;;;;21.64;57.88;95447.31;10451644;28;1939;-74
2023/07/30 05:11:40;;;;;;;;;;;;;;;21.66;57.61;95455.72;10450848;28;2158;-73
2023/07/30 05:16:40;;;;;;;;;;;;;;;21.64;57.58;95452.59;10443743;28;1862;-73
2023/07/30 05:21:43;;;;;;;;;;;;;;;21.65;57.44;95448.91;10455861;28;1980;-75
2023/07/30 05:26:43;;;;;;;;;;;;;;;21.64;57.85;95448.13;10467458;28;1938;-75
2023/07/30 05:31:44;;;;;;;;;;;;;;;21.63;57.75;95464.22;10469549;28;1943;-74
2023/07/30 05:36:44;;;;;;;;;;;;;;;21.63;57.43;95465.03;10449742;28;4482;-74
2023/07/30 05:41:45;;;;;;;;;;;;;;;21.61;57.66;95479.56;10450971;28;1910;-74
2023/07/30 05:46:45;;;;;;;;;;;;;;;21.60;57.84;95473.50;10450920;28;1863;-74
2023/07/30 05:51:45;;;;;;;;;;;;;;;21.63;57.48;95461.59;10467497;28;1857;-74
2023/07/30 05:56:46;;;;;;;;;;;;;;;21.63;57.64;95469.50;10444363;28;1964;-74
2023/07/30 06:01:46;;;;;;;;;;;;;;;21.64;57.43;95468.44;10447223;28;1991;-74
2023/07/30 06:06:46;;;;;;;;;;;;;;;21.64;57.71;95468.44;10442446;28;2300;-74
2023/07/30 06:11:46;;;;;;;;;;;;;;;21.67;57.60;95470.50;10440571;28;2219;-72
2023/07/30 06:16:47;;;;;;;;;;;;;;;21.71;57.58;95476.78;10439204;28;2055;-72
2023/07/30 06:21:48;;;;;;;;;;;;;;;21.75;57.63;95472.50;10457574;28;1920;-72
2023/07/30 06:26:48;;;;;;;;;;;;;;;21.77;57.78;95465.06;10483998;28;1861;-73
2023/07/30 06:31:49;;;;;;;;;;;;;;;21.80;57.64;95469.78;10450215;28;2066;-71
2023/07/30 06:36:49;;;;;;;;;;;;;;;21.82;57.81;95476.34;10441946;28;4687;-71
2023/07/30 06:41:49;;;;;;;;;;;;;;;21.79;57.52;95476.13;10455887;28;1968;-71
2023/07/30 06:46:49;;;;;;;;;;;;;;;21.78;57.25;95475.31;10464822;28;2036;-74
2023/07/30 06:51:50;;;;;;;;;;;;;;;21.80;57.51;95477.69;10438910;28;2004;-71
2023/07/30 06:56:50;;;;;;;;;;;;;;;21.79;57.46;95476.13;10445121;28;1969;-74
2023/07/30 07:01:51;;;;;;;;;;;;;;;21.81;57.42;95474.78;10446652;28;2279;-71
2023/07/30 07:06:52;;;;;;;;;;;;;;;21.85;57.42;95477.63;10453910;28;1913;-72
2023/07/30 07:11:53;;;;;;;;;;;;;;;21.85;57.11;95480.28;10442114;28;1924;-69
2023/07/30 07:16:53;;;;;;;;;;;;;;;21.83;56.97;95483.22;10435031;28;1973;-69
2023/07/30 07:22:03;;;;;;;;;;;;;;;21.85;57.01;95481.06;10449942;28;2033;-66
2023/07/30 07:27:04;;;;;;;;;;;;;;;21.86;56.88;95495.81;10441173;28;2045;-68
2023/07/30 07:32:04;;;;;;;;;;;;;;;21.86;56.86;95495.06;10439213;28;1900;-71
2023/07/30 07:37:05;;;;;;;;;;;;;;;21.88;56.87;95492.91;10445326;28;1960;-81
2023/07/30 07:42:05;;;;;;;;;;;;;;;21.92;56.82;95499.19;10448406;28;2077;-72
2023/07/30 07:47:05;;;;;;;;;;;;;;;21.92;56.97;95496.53;10442823;28;1866;-73
2023/07/30 07:52:06;;;;;;;;;;;;;;;21.93;56.37;95497.31;10462964;28;1822;-70
2023/07/30 07:57:08;;;;;;;;;;;;;;;21.97;56.77;95496.44;10447291;28;2545;-70
2023/07/30 08:02:08;;;;;;;;;;;;;;;21.99;56.79;95494.28;10457999;28;1983;-70
2023/07/30 08:07:09;;;;;;;;;;;;;;;22.01;56.70;95499.31;10449172;28;2115;-69
2023/07/30 08:12:09;;;;;;;;;;;;;;;22.03;56.54;95502.44;10450040;28;1845;-69
2023/07/30 08:17:09;;;;;;;;;;;;;;;22.05;56.23;95501.06;10453169;28;1907;-70
2023/07/30 08:22:09;;;;;;;;;;;;;;;22.05;56.17;95493.13;10458018;28;1985;-70
2023/07/30 08:27:10;;;;;;;;;;;;;;;22.08;56.32;95500.50;10455723;28;1882;-71
2023/07/30 08:32:10;;;;;;;;;;;;;;;22.08;56.37;95505.78;10453760;28;1962;-70
2023/07/30 08:37:10;;;;;;;;;;;;;;;22.10;56.06;95493.06;10449198;28;4363;-70
2023/07/30 08:42:11;;;;;;;;;;;;;;;22.11;56.10;95493.88;10449100;28;2421;-70
2023/07/30 08:47:11;;;;;;;;;;;;;;;22.12;56.10;95482.22;10449765;28;1883;-70
2023/07/30 08:52:11;;;;;;;;;;;;;;;22.13;55.90;95491.72;10452270;28;1878;-70
2023/07/30 08:57:12;;;;;;;;;;;;;;;22.13;55.87;95487.22;10443389;28;2729;-70
2023/07/30 09:02:13;;;;;;;;;;;;;;;22.13;55.73;95473.25;10443079;28;2030;-71
2023/07/30 09:07:13;;;;;;;;;;;;;;;22.14;55.67;95467.66;10447963;28;1999;-70
2023/07/30 09:12:14;;;;;;;;;;;;;;;22.15;55.94;95458.69;10447491;28;2151;-70
2023/07/30 09:17:18;;;;;;;;;;;;;;;22.15;55.95;95461.31;10474496;28;2037;-70
2023/07/30 09:22:28;;;;;;;;;;;;;;;22.15;55.55;95440.19;10453757;28;1978;-69
2023/07/30 09:27:28;;;;;;;;;;;;;;;22.19;55.56;95453.59;10466155;28;1894;-69
2023/07/30 09:32:29;;;;;;;;;;;;;;;22.18;55.76;95454.66;10450693;28;1869;-70
2023/07/30 09:37:30;;;;;;;;;;;;;;;22.19;55.30;95446.47;10462909;28;4549;-69
2023/07/30 09:42:30;;;;;;;;;;;;;;;22.20;55.37;95453.31;10446434;28;1888;-69
2023/07/30 09:47:31;;;;;;;;;;;;;;;22.19;55.32;95443.81;10461803;28;1681;-69
2023/07/30 09:52:31;;;;;;;;;;;;;;;22.22;55.36;95447.72;10449760;28;2330;-69
2023/07/30 09:57:31;;;;;;;;;;;;;;;22.22;55.42;95443.22;10442774;28;2000;-69
2023/07/30 10:02:32;;;;;;;;;;;;;;;22.22;55.33;95422.09;10445407;28;1973;-71
2023/07/30 10:07:33;;;;;;;;;;;;;;;22.24;55.37;95443.72;10448937;28;1944;-70
2023/07/30 10:12:34;;;;;;;;;;;;;;;22.24;55.30;95459.56;10444469;28;1857;-70
2023/07/30 10:17:34;;;;;;;;;;;;;;;22.25;55.24;95447.94;10439214;28;1818;-70
2023/07/30 10:22:35;;;;;;;;;;;;;;;22.25;55.17;95458.50;10444590;28;1903;-70
2023/07/30 10:27:38;;;;;;;;;;;;;;;22.25;55.15;95469.06;10468142;28;1894;-70
2023/07/30 10:32:42;;;;;;;;;;;;;;;22.26;55.39;95470.63;10441616;28;1945;-69
2023/07/30 10:37:46;;;;;;;;;;;;;;;22.27;55.41;95456.34;10449448;28;4447;-70
2023/07/30 10:42:46;;;;;;;;;;;;;;;22.27;55.39;95459.00;10442647;28;1914;-70
2023/07/30 10:47:47;;;;;;;;;;;;;;;22.29;55.18;95454.22;10436856;28;2310;-69
2023/07/30 10:52:47;;;;;;;;;;;;;;;22.30;55.21;95450.47;10441334;28;1873;-69
2023/07/30 10:57:47;;;;;;;;;;;;;;;22.29;55.25;95433.09;10447188;28;1853;-69
2023/07/30 11:02:57;;;;;;;;;;;;;;;22.32;55.13;95443.03;10470473;28;1970;-69
2023/07/30 11:07:57;;;;;;;;;;;;;;;22.32;55.27;95448.31;10438480;28;1857;-69
2023/07/30 11:12:57;;;;;;;;;;;;;;;22.32;55.13;95437.75;10434443;28;1840;-70
2023/07/30 11:17:58;;;;;;;;;;;;;;;22.34;55.05;95445.41;10441848;28;1930;-69
2023/07/30 11:22:58;;;;;;;;;;;;;;;22.33;55.12;95443.84;10427755;28;2106;-69
2023/07/30 11:27:58;;;;;;;;;;;;;;;22.35;55.00;95449.59;10456731;28;1815;-69
2023/07/30 11:32:59;;;;;;;;;;;;;;;22.36;55.31;95445.91;10445403;28;1869;-69
2023/07/30 11:37:59;;;;;;;;;;;;;;;22.36;55.14;95443.28;10451763;28;4509;-69
2023/07/30 11:42:59;;;;;;;;;;;;;;;22.36;54.94;95448.56;10451606;28;2372;-70
2023/07/30 11:48:08;;;;;;;;;;;;;;;22.35;54.81;95484.72;10443909;28;1960;-69
2023/07/30 11:53:08;;;;;;;;;;;;;;;22.36;54.81;95491.56;10460126;28;1918;-69
2023/07/30 11:58:12;;;;;;;;;;;;;;;22.38;55.00;95488.66;10444045;28;1885;-69
2023/07/30 12:03:12;;;;;;;;;;;;;;;22.39;54.88;95496.28;10480363;28;1968;-72
2023/07/30 12:08:13;;;;;;;;;;;;;;;22.42;55.14;95492.28;10476342;28;1968;-75
2023/07/30 12:13:17;;;;;;;;;;;;;;;22.43;55.04;95491.19;10443181;28;1981;-71
2023/07/30 12:18:17;;;;;;;;;;;;;;;22.44;55.13;95498.06;10452031;28;1838;-72
2023/07/30 12:23:18;;;;;;;;;;;;;;;22.44;55.26;95493.53;10439859;28;2001;-73
2023/07/30 12:28:18;;;;;;;;;;;;;;;22.46;55.12;95507.22;10477463;28;1945;-72
2023/07/30 12:33:18;;;;;;;;;;;;;;;22.46;55.17;95509.88;10444862;28;1991;-72
2023/07/30 12:38:19;;;;;;;;;;;;;;;22.48;55.01;95515.66;10440269;28;4462;-69
2023/07/30 12:43:20;;;;;;;;;;;;;;;22.49;55.25;95517.22;10447844;28;1975;-69
2023/07/30 12:48:20;;;;;;;;;;;;;;;22.51;55.15;95509.78;10441820;28;1897;-71
2023/07/30 12:53:20;;;;;;;;;;;;;;;22.50;55.00;95505.56;10451927;28;1933;-73
2023/07/30 12:58:21;;;;;;;;;;;;;;;22.51;55.26;95499.22;10444194;28;1918;-69
2023/07/30 13:03:21;;;;;;;;;;;;;;;22.52;54.93;95519.28;10441720;28;1914;-69
2023/07/30 13:08:21;;;;;;;;;;;;;;;22.53;55.00;95498.94;10440500;28;1806;-70
2023/07/30 13:13:22;;;;;;;;;;;;;;;22.54;55.35;95493.38;10443087;28;1866;-69
2023/07/30 13:18:23;;;;;;;;;;;;;;;22.54;55.34;95517.16;10438209;28;1867;-70
2023/07/30 13:23:26;;;;;;;;;;;;;;;22.55;55.12;95528.47;10440864;28;1967;-71
2023/07/30 13:28:27;;;;;;;;;;;;;;;22.59;54.98;95537.41;10472583;28;1941;-68
2023/07/30 13:33:27;;;;;;;;;;;;;;;22.57;54.90;95535.03;10443593;28;1866;-69
2023/07/30 13:38:27;;;;;;;;;;;;;;;22.57;54.80;95542.97;10442078;28;2375;-69
2023/07/30 13:43:28;;;;;;;;;;;;;;;22.57;54.66;95560.66;10453594;28;1906;-69
2023/07/30 13:48:28;;;;;;;;;;;;;;;22.55;54.50;95579.47;10443237;28;1984;-70
2023/07/30 13:53:28;;;;;;;;;;;;;;;22.56;54.55;95583.69;10452329;28;1814;-70
2023/07/30 13:58:29;;;;;;;;;;;;;;;22.57;54.88;95568.59;10443288;28;2012;-67
2023/07/30 14:03:29;;;;;;;;;;;;;;;22.59;54.60;95562.00;10449987;28;1906;-65
2023/07/30 14:08:29;;;;;;;;;;;;;;;22.61;54.75;95566.97;10450412;28;1877;-72
2023/07/30 14:13:29;;;;;;;;;;;;;;;22.61;54.85;95562.47;10441977;28;1842;-71
2023/07/30 14:18:30;;;;;;;;;;;;;;;22.61;54.82;95561.69;10477734;28;1818;-69
2023/07/30 14:23:30;;;;;;;;;;;;;;;22.61;54.62;95567.75;10438690;28;2073;-68
2023/07/30 14:28:30;;;;;;;;;;;;;;;22.60;54.56;95566.22;10448381;28;1952;-69
2023/07/30 14:33:30;;;;;;;;;;;;;;;22.60;54.70;95566.22;10443420;28;2089;-72
2023/07/30 14:38:33;;;;;;;;;;;;;;;22.63;54.73;95559.53;10442269;28;4501;-71
2023/07/30 14:43:34;;;;;;;;;;;;;;;22.63;55.12;95562.97;10440292;28;1977;-72
2023/07/30 14:48:34;;;;;;;;;;;;;;;22.62;55.28;95566.69;10437477;28;1795;-73
2023/07/30 14:53:35;;;;;;;;;;;;;;;22.64;55.26;95561.91;10439780;28;1811;-72
2023/07/30 14:58:35;;;;;;;;;;;;;;;22.65;55.44;95552.91;10440112;28;1814;-72
2023/07/30 15:03:35;;;;;;;;;;;;;;;22.64;55.40;95551.34;10435505;28;1954;-71
2023/07/30 15:08:36;;;;;;;;;;;;;;;22.65;55.49;95546.81;10435423;28;1857;-72
2023/07/30 15:13:36;;;;;;;;;;;;;;;22.65;55.39;95537.03;10437429;28;1878;-72
2023/07/30 15:18:36;;;;;;;;;;;;;;;22.67;55.28;95546.56;10443451;28;1844;-71
2023/07/30 15:23:36;;;;;;;;;;;;;;;22.65;55.13;95538.91;10439079;28;1935;-71
2023/07/30 15:28:37;;;;;;;;;;;;;;;22.65;55.29;95542.31;10438236;28;2217;-70
2023/07/30 15:33:37;;;;;;;;;;;;;;;22.64;55.08;95543.41;10439767;28;1984;-69
2023/07/30 15:38:37;;;;;;;;;;;;;;;22.65;55.09;95541.53;10436400;28;4374;-71
2023/07/30 15:43:38;;;;;;;;;;;;;;;22.65;54.94;95541.53;10430641;28;1902;-71
2023/07/30 15:48:38;;;;;;;;;;;;;;;22.65;55.00;95544.97;10470867;28;1876;-71
2023/07/30 15:53:38;;;;;;;;;;;;;;;22.64;54.89;95540.78;10438342;28;1839;-71
2023/07/30 15:58:38;;;;;;;;;;;;;;;22.65;54.65;95550.25;10451635;28;1884;-72
2023/07/30 16:03:39;;;;;;;;;;;;;;;22.63;54.73;95549.75;10439273;28;2067;-72
2023/07/30 16:08:39;;;;;;;;;;;;;;;22.63;54.71;95539.19;10443285;28;1810;-72
2023/07/30 16:13:39;;;;;;;;;;;;;;;22.64;54.48;95534.69;10442947;28;1854;-70
2023/07/30 16:18:42;;;;;;;;;;;;;;;22.64;54.60;95530.22;10444443;28;1857;-71
2023/07/30 16:23:43;;;;;;;;;;;;;;;22.62;54.38;95532.34;10444564;28;2310;-71
2023/07/30 16:28:44;;;;;;;;;;;;;;;22.62;54.26;95542.94;10446226;28;1870;-70
2023/07/30 16:33:44;;;;;;;;;;;;;;;22.63;54.46;95535.75;10443886;28;1869;-71
2023/07/30 16:38:45;;;;;;;;;;;;;;;22.62;54.41;95542.94;10446662;28;4505;-71
2023/07/30 16:43:45;;;;;;;;;;;;;;;22.63;54.21;95548.97;10427514;28;2007;-71
2023/07/30 16:48:45;;;;;;;;;;;;;;;22.62;54.12;95560.63;10472395;28;1880;-72
2023/07/30 16:53:46;;;;;;;;;;;;;;;22.62;54.18;95550.06;10449210;28;1858;-68
2023/07/30 16:58:46;;;;;;;;;;;;;;;22.62;53.92;95553.50;10441173;28;1857;-70
2023/07/30 17:03:46;;;;;;;;;;;;;;;22.61;54.00;95557.19;10442774;28;2033;-68
2023/07/30 17:08:46;;;;;;;;;;;;;;;22.61;53.84;95557.19;10445620;28;1868;-68
2023/07/30 17:13:47;;;;;;;;;;;;;;;22.62;53.74;95563.28;10451549;28;1877;-68
2023/07/30 17:18:50;;;;;;;;;;;;;;;22.62;53.73;95568.56;10450240;28;2307;-68
2023/07/30 17:23:50;;;;;;;;;;;;;;;22.61;53.71;95566.97;10446731;28;1945;-68
2023/07/30 17:28:50;;;;;;;;;;;;;;;22.60;53.80;95574.13;10447343;28;1984;-69
2023/07/30 17:33:51;;;;;;;;;;;;;;;22.61;53.67;95578.31;10450735;28;1998;-69
2023/07/30 17:38:51;;;;;;;;;;;;;;;22.61;53.86;95596.03;10442282;28;4418;-69
2023/07/30 17:43:51;;;;;;;;;;;;;;;22.60;53.72;95597.13;10440074;28;2145;-70
2023/07/30 17:48:52;;;;;;;;;;;;;;;22.60;53.42;95607.69;10445385;28;1882;-69
2023/07/30 17:53:54;;;;;;;;;;;;;;;22.60;53.51;95615.63;10435559;28;1945;-70
2023/07/30 17:58:54;;;;;;;;;;;;;;;22.59;53.54;95621.97;10447738;28;1826;-69
2023/07/30 18:03:54;;;;;;;;;;;;;;;22.58;53.23;95623.84;10443859;28;1970;-69
2023/07/30 18:08:55;;;;;;;;;;;;;;;22.58;53.37;95637.03;10478171;28;1897;-70
2023/07/30 18:13:57;;;;;;;;;;;;;;;22.58;53.30;95636.25;10469881;28;2084;-70
2023/07/30 18:18:57;;;;;;;;;;;;;;;22.58;53.36;95641.53;10438059;28;2453;-69
2023/07/30 18:23:57;;;;;;;;;;;;;;;22.58;53.21;95647.63;10449022;28;1983;-70
2023/07/30 18:28:58;;;;;;;;;;;;;;;22.57;53.02;95646.00;10437970;28;2079;-73
2023/07/30 18:33:58;;;;;;;;;;;;;;;22.57;52.87;95661.84;10443118;28;1886;-71
2023/07/30 18:38:58;;;;;;;;;;;;;;;22.58;53.06;95671.38;10443882;28;4556;-74
2023/07/30 18:43:58;;;;;;;;;;;;;;;22.57;53.23;95684.84;10439000;28;1931;-69
2023/07/30 18:48:59;;;;;;;;;;;;;;;22.58;52.87;95700.44;10442367;28;2005;-70
2023/07/30 18:53:59;;;;;;;;;;;;;;;22.57;52.88;95706.75;10438627;28;1921;-68
2023/07/30 18:59:01;;;;;;;;;;;;;;;22.57;52.78;95711.25;10452884;28;1874;-68
2023/07/30 19:04:02;;;;;;;;;;;;;;;22.57;52.99;95714.69;10436378;28;1897;-69
2023/07/30 19:09:02;;;;;;;;;;;;;;;22.58;52.66;95724.22;10441840;28;1897;-69
2023/07/30 19:14:02;;;;;;;;;;;;;;;22.58;52.71;95736.66;10442942;28;2237;-69
2023/07/30 19:19:04;;;;;;;;;;;;;;;22.57;52.67;95742.94;10442724;28;1861;-69
2023/07/30 19:24:04;;;;;;;;;;;;;;;22.56;52.70;95744.84;10471177;28;1983;-69
2023/07/30 19:29:04;;;;;;;;;;;;;;;22.55;52.80;95750.38;10437716;28;1862;-69
2023/07/30 19:34:13;;;;;;;;;;;;;;;22.55;52.71;95753.81;10451237;28;2018;-69
2023/07/30 19:39:14;;;;;;;;;;;;;;;22.54;52.97;95773.41;10442271;28;4569;-70
2023/07/30 19:44:14;;;;;;;;;;;;;;;22.54;52.44;95776.03;10442352;28;1989;-69
2023/07/30 19:49:14;;;;;;;;;;;;;;;22.56;52.42;95784.47;10446828;28;2089;-69
2023/07/30 19:54:14;;;;;;;;;;;;;;;22.54;52.55;95791.88;10443809;28;1894;-69
2023/07/30 19:59:15;;;;;;;;;;;;;;;22.55;52.59;95809.28;10449607;28;1854;-70
2023/07/30 20:04:15;;;;;;;;;;;;;;;22.53;52.45;95811.44;10444728;28;1968;-70
2023/07/30 20:09:15;;;;;;;;;;;;;;;22.53;52.18;95816.72;10445811;28;2278;-69
2023/07/30 20:14:16;;;;;;;;;;;;;;;22.52;52.16;95825.69;10444701;28;1857;-69
2023/07/30 20:19:16;;;;;;;;;;;;;;;22.52;52.56;95832.84;10449602;28;1873;-69
2023/07/30 20:24:17;;;;;;;;;;;;;;;22.53;52.32;95842.34;10445560;28;2045;-70
2023/07/30 20:29:18;;;;;;;;;;;;;;;22.52;52.44;95836.25;10449343;28;1947;-66
2023/07/30 20:34:18;;;;;;;;;;;;;;;22.52;52.49;95838.16;10447634;28;1865;-66
2023/07/30 20:39:18;;;;;;;;;;;;;;;22.51;52.32;95828.63;10448772;28;4445;-67
2023/07/30 20:44:19;;;;;;;;;;;;;;;22.51;52.54;95831.28;10445188;28;1906;-67
2023/07/30 20:49:19;;;;;;;;;;;;;;;22.50;52.10;95832.34;10444010;28;1992;-66
2023/07/30 20:54:19;;;;;;;;;;;;;;;22.49;52.15;95833.41;10442199;28;1984;-67
2023/07/30 20:59:20;;;;;;;;;;;;;;;22.49;51.97;95833.41;10443980;28;1880;-66
2023/07/30 21:04:20;;;;;;;;;;;;;;;22.49;51.85;95836.06;10449347;28;2348;-65
2023/07/30 21:09:20;;;;;;;;;;;;;;;22.47;52.07;95838.97;10443399;28;1946;-66
2023/07/30 21:14:21;;;;;;;;;;;;;;;22.48;51.88;95842.41;10443914;28;2081;-66
2023/07/30 21:19:21;;;;;;;;;;;;;;;22.46;51.52;95842.69;10440043;28;1947;-69
2023/07/30 21:24:21;;;;;;;;;;;;;;;22.45;51.45;95842.97;10449867;28;2002;-68
2023/07/30 21:29:21;;;;;;;;;;;;;;;22.46;51.42;95844.56;10440460;28;1924;-66
2023/07/30 21:34:22;;;;;;;;;;;;;;;22.45;51.52;95837.69;10440840;28;2129;-66
2023/07/30 21:39:23;;;;;;;;;;;;;;;22.46;51.35;95836.63;10444764;28;4505;-70
2023/07/30 21:44:23;;;;;;;;;;;;;;;22.47;51.54;95838.97;10440223;28;1985;-70
2023/07/30 21:49:23;;;;;;;;;;;;;;;22.48;51.67;95837.13;10439616;28;1851;-70
2023/07/30 21:54:23;;;;;;;;;;;;;;;22.47;51.49;95833.69;10442212;28;2025;-70
2023/07/30 21:59:24;;;;;;;;;;;;;;;22.46;51.62;95837.41;10446443;28;1960;-70
2023/07/30 22:04:24;;;;;;;;;;;;;;;22.47;51.84;95838.19;10436602;28;2317;-71
2023/07/30 22:09:24;;;;;;;;;;;;;;;22.47;51.42;95840.84;10441598;28;1989;-70
2023/07/30 22:14:25;;;;;;;;;;;;;;;22.47;51.41;95832.91;10445022;28;1917;-70
2023/07/30 22:19:25;;;;;;;;;;;;;;;22.46;51.37;95845.31;10458443;28;2057;-71
2023/07/30 22:24:25;;;;;;;;;;;;;;;22.46;51.36;95836.63;10441755;28;1977;-70
2023/07/30 22:29:25;;;;;;;;;;;;;;;22.45;51.42;95843.75;10441310;28;1827;-70
2023/07/30 22:34:26;;;;;;;;;;;;;;;22.46;51.29;95841.91;10439519;28;2097;-71
2023/07/30 22:39:26;;;;;;;;;;;;;;;22.45;51.35;95843.75;10437107;28;4510;-70
2023/07/30 22:44:26;;;;;;;;;;;;;;;22.46;51.19;95842.69;10436602;28;1975;-70
2023/07/30 22:49:26;;;;;;;;;;;;;;;22.45;51.14;95843.75;10469995;28;1905;-70
2023/07/30 22:54:27;;;;;;;;;;;;;;;22.45;51.09;95838.47;10445198;28;1941;-70
2023/07/30 22:59:27;;;;;;;;;;;;;;;22.44;51.17;95830.84;10437950;28;2256;-70
2023/07/30 23:04:27;;;;;;;;;;;;;;;22.44;51.11;95839.53;10446313;28;1918;-69
2023/07/30 23:09:28;;;;;;;;;;;;;;;22.43;50.92;95835.34;10437679;28;2076;-71
2023/07/30 23:14:28;;;;;;;;;;;;;;;22.42;50.79;95839.03;10453402;28;1871;-70
2023/07/30 23:19:28;;;;;;;;;;;;;;;22.42;50.75;95839.03;10435843;28;1898;-70
2023/07/30 23:24:28;;;;;;;;;;;;;;;22.45;50.78;95842.97;10441975;28;2060;-70
2023/07/30 23:29:29;;;;;;;;;;;;;;;22.43;50.76;95845.91;10438120;28;2012;-70
2023/07/30 23:34:29;;;;;;;;;;;;;;;22.43;50.53;95853.81;10443126;28;1945;-70
2023/07/30 23:39:29;;;;;;;;;;;;;;;22.43;50.37;95845.91;10442281;28;4562;-71
2023/07/30 23:44:29;;;;;;;;;;;;;;;22.42;50.77;95839.03;10443837;28;2026;-70
2023/07/30 23:49:30;;;;;;;;;;;;;;;22.42;50.42;95838.28;10450216;28;1861;-70
2023/07/30 23:54:30;;;;;;;;;;;;;;;22.43;50.57;95837.19;10445374;28;2210;-71
2023/07/30 23:59:30;;;;;;;;;;;;;;;22.43;50.75;95829.25;10437633;28;1895;-69
